Methuen, MA

2:51 PM EDT on April 27, 2015 (GMT -0400)
Timber Lane | | Change Station
CLOSE
Current Station
Personal Weather Station
Location: Methuen, MA
Elevation: 112 ft
Nearby Weather Stations

Elev 112 ft 42.73 °N, 71.16 °W | Updated 4 seconds ago

Overcast
Overcast
56.3 °F
Feels Like 56.3 °F
N
12.7
Wind Variable Wind from West
Gusts 12.7 mph

Today
High -- | Low -- °F
--% Chance of Precip.
Yesterday
High -- | Low -- °F
Precip. -- in
5:45 AM 7:40 PM
Waxing Gibbous, 67% visible
Pressure 29.55 in
Visibility 10.0 miles
Clouds Overcast 5500 ft
Dew Point 36 °F
Humidity 47%
Rainfall 0.00 in
Snow Depth Not available.
UV 3 out of 12
Pollen 9.20 out of 12
Air Quality Not available.
Flu Activity Widespread
METAR KLWM 271754Z 33015G22KT 10SM OVC055 13/01 A2955 RMK AO2 SLP006 T01330011 10139 20089 56011

More Conditions Fewer Conditions

Pressure 29.55 in
Visibility 10.0 miles
Clouds Overcast 5500 ft
Dew Point 36 °F
Humidity 47%
Rainfall 0.00 in
Snow Depth Not available.
UV 3 out of 12
Pollen 9.20 out of 12
Air Quality Not available.
Flu Activity Widespread
METAR KLWM 271754Z 33015G22KT 10SM OVC055 13/01 A2955 RMK AO2 SLP006 T01330011 10139 20089 56011

More Conditions Fewer Conditions

10-Day Weather Forecast

Almanac

Astronomy

Apr. 27, 2015 Rise Set
Actual Time
Civil Twilight
Nautical Twilight
Astronomical Twilight
Moon
Length of Visible Light
Length of Day
Tomorrow will be .
, % of the Moon is Illuminated

Today's Extremes

State Highs State Lows

Community

WunderPhotos

Upload Photos

1,817,398 photos uploaded!

WunderBlogs® & News

Nearby

Air Quality

  Air Quality AQ Index Pollutant
Not available.

Snow Depth

Station Depth Elevation

Earthquake Activity

City Distance Mag. Time & Date
Minimum magnitude displayed is 2.5.

Coastal Water Temperatures

Place Temperature

Stations

Nearby Weather Stations

Station Location Temp. Windchill Dew Point Humidity Wind Precip. Elev Updated Type